createdAt,value
2017-01-26T00:01:40.482Z,99.99
2017-01-26T00:03:52.911Z,99.99
2017-01-26T00:06:05.192Z,99.99
2017-01-26T00:08:17.490Z,99.99
2017-01-26T00:10:29.811Z,99.99
2017-01-26T00:12:37.175Z,99.99
2017-01-26T00:14:49.556Z,99.99
2017-01-26T00:17:02.244Z,99.99
2017-01-26T00:19:14.438Z,99.99
2017-01-26T00:21:27.017Z,99.99
2017-01-26T00:23:40.121Z,99.99
2017-01-26T00:25:52.303Z,99.99
2017-01-26T00:28:04.666Z,99.99
2017-01-26T00:30:17.018Z,99.99
2017-01-26T00:32:29.271Z,99.99
2017-01-26T00:34:41.582Z,99.99
2017-01-26T00:36:53.934Z,99.99
2017-01-26T00:39:06.371Z,99.99
2017-01-26T00:41:18.635Z,99.99
2017-01-26T00:43:30.912Z,99.99
2017-01-26T00:45:43.374Z,99.99
2017-01-26T00:47:55.712Z,99.99
2017-01-26T00:50:07.890Z,99.99
2017-01-26T00:52:20.299Z,99.99
2017-01-26T00:54:32.756Z,99.99
2017-01-26T00:56:45.378Z,99.99
2017-01-26T00:58:58.018Z,99.99
2017-01-26T01:01:05.366Z,99.99
2017-01-26T01:03:17.539Z,99.99
2017-01-26T01:05:29.926Z,99.99
2017-01-26T01:07:42.319Z,99.99
2017-01-26T01:09:54.521Z,99.99
2017-01-26T01:12:06.725Z,99.99
2017-01-26T01:14:18.928Z,99.99
2017-01-26T01:16:31.345Z,99.99
2017-01-26T01:18:43.619Z,99.99
2017-01-26T01:20:55.783Z,99.99
2017-01-26T01:23:08.205Z,99.99
2017-01-26T01:25:20.375Z,99.99
2017-01-26T01:27:32.613Z,99.99
2017-01-26T01:29:44.932Z,99.99
2017-01-26T01:31:52.972Z,99.99
2017-01-26T01:34:05.548Z,99.99
2017-01-26T01:36:17.783Z,99.99
2017-01-26T01:38:30.158Z,99.99
2017-01-26T01:40:37.770Z,99.99
2017-01-26T01:42:45.027Z,99.99
2017-01-26T01:44:57.409Z,99.99
2017-01-26T01:47:09.644Z,99.99
2017-01-26T01:49:16.894Z,99.99
2017-01-26T01:51:29.221Z,99.99
2017-01-26T01:53:42.421Z,99.99
2017-01-26T01:55:54.722Z,99.99
2017-01-26T01:58:06.940Z,99.99
2017-01-26T02:00:19.346Z,99.99
2017-01-26T02:02:31.868Z,99.99
2017-01-26T02:04:44.460Z,99.99
2017-01-26T02:06:57.349Z,99.99
2017-01-26T02:09:04.665Z,99.99
2017-01-26T02:11:16.839Z,99.99
2017-01-26T02:13:29.168Z,99.99
2017-01-26T02:15:41.540Z,99.99
2017-01-26T02:17:53.872Z,99.99
2017-01-26T02:20:06.030Z,99.99
2017-01-26T02:22:13.380Z,99.99
2017-01-26T02:24:20.844Z,99.99
2017-01-26T02:26:33.015Z,99.99
2017-01-26T02:28:45.287Z,99.99
2017-01-26T02:30:57.681Z,99.99
2017-01-26T02:33:09.981Z,99.99
2017-01-26T02:35:22.368Z,99.99
2017-01-26T02:37:34.957Z,99.99
2017-01-26T02:39:42.677Z,99.99
2017-01-26T02:41:55.431Z,99.99
2017-01-26T02:44:07.904Z,99.99
2017-01-26T02:46:20.156Z,99.99
2017-01-26T02:48:27.560Z,99.99
2017-01-26T02:50:39.813Z,99.99
2017-01-26T02:52:52.045Z,99.99
2017-01-26T02:55:04.432Z,99.99
2017-01-26T02:57:16.778Z,99.99
2017-01-26T02:59:24.530Z,99.99
2017-01-26T03:01:36.800Z,99.99
2017-01-26T03:03:49.120Z,99.99
2017-01-26T03:06:01.421Z,99.99
2017-01-26T03:08:14.770Z,99.99
2017-01-26T03:10:26.960Z,99.99
2017-01-26T03:12:39.216Z,99.99
2017-01-26T03:14:46.576Z,99.99
2017-01-26T03:16:59.298Z,99.99
2017-01-26T03:19:06.757Z,99.99
2017-01-26T03:21:19.054Z,99.99
2017-01-26T03:23:31.482Z,99.99
2017-01-26T03:25:47.739Z,99.99
2017-01-26T03:27:59.845Z,99.99
2017-01-26T03:30:12.264Z,99.99
2017-01-26T03:32:27.230Z,99.99
2017-01-26T03:34:39.513Z,99.99
2017-01-26T03:36:54.516Z,99.99
2017-01-26T03:39:06.731Z,99.99
2017-01-26T03:41:19.018Z,99.99
2017-01-26T03:43:31.173Z,99.99
2017-01-26T03:45:43.346Z,99.99
2017-01-26T03:47:45.929Z,99.99
2017-01-26T03:49:58.371Z,99.99
2017-01-26T03:52:11.456Z,99.99
2017-01-26T03:54:18.974Z,99.99
2017-01-26T03:56:31.362Z,99.99
2017-01-26T03:58:43.537Z,99.99
2017-01-26T04:00:55.718Z,99.99
2017-01-26T04:03:03.175Z,99.99
2017-01-26T04:05:11.279Z,99.99
2017-01-26T04:07:23.874Z,99.99
2017-01-26T04:09:36.292Z,99.99
2017-01-26T04:11:43.490Z,99.99
2017-01-26T04:13:55.933Z,99.99
2017-01-26T04:16:08.149Z,99.99
2017-01-26T04:18:21.479Z,99.99
2017-01-26T04:20:29.310Z,99.99
2017-01-26T04:22:41.526Z,99.99
2017-01-26T04:24:54.057Z,99.99
2017-01-26T04:27:06.976Z,99.99
2017-01-26T04:29:19.542Z,99.99
2017-01-26T04:31:31.922Z,99.99
2017-01-26T04:33:44.253Z,99.99
2017-01-26T04:35:51.620Z,99.99
2017-01-26T04:38:04.129Z,99.99
2017-01-26T04:40:16.603Z,99.99
2017-01-26T04:42:28.817Z,99.99
2017-01-26T04:44:41.132Z,99.99
2017-01-26T04:46:53.482Z,99.99
2017-01-26T04:49:06.756Z,99.99
2017-01-26T04:51:14.058Z,99.99
2017-01-26T04:53:26.480Z,99.99
2017-01-26T04:55:38.667Z,99.99
2017-01-26T04:57:50.966Z,99.99
2017-01-26T04:59:58.465Z,99.99
2017-01-26T05:02:11.142Z,99.99
2017-01-26T05:04:23.849Z,99.99
2017-01-26T05:06:36.243Z,99.99
2017-01-26T05:08:43.570Z,99.99
2017-01-26T05:10:55.819Z,99.99
2017-01-26T05:13:08.243Z,99.99
2017-01-26T05:15:20.626Z,99.99
2017-01-26T05:17:32.926Z,99.99
2017-01-26T05:19:45.228Z,99.99
2017-01-26T05:21:57.389Z,99.99
2017-01-26T05:24:09.748Z,99.99
2017-01-26T05:26:17.050Z,99.99
2017-01-26T05:28:29.432Z,99.99
2017-01-26T05:30:41.659Z,99.99
2017-01-26T05:32:49.134Z,99.99
2017-01-26T05:34:51.536Z,99.99
2017-01-26T05:37:04.591Z,99.99
2017-01-26T05:39:17.311Z,99.99
2017-01-26T05:41:29.911Z,99.99
2017-01-26T05:43:42.351Z,99.99
2017-01-26T05:45:54.756Z,99.99
2017-01-26T05:48:07.157Z,99.99
2017-01-26T05:50:19.413Z,99.99
2017-01-26T05:52:31.704Z,99.99
2017-01-26T05:54:44.038Z,99.99
2017-01-26T05:56:56.253Z,99.99
2017-01-26T05:59:08.641Z,99.99
2017-01-26T06:01:20.835Z,99.99
2017-01-26T06:03:23.317Z,99.99
2017-01-26T06:05:35.919Z,99.99
2017-01-26T06:07:43.287Z,99.99
2017-01-26T06:09:56.702Z,99.99
2017-01-26T06:12:09.611Z,99.99
2017-01-26T06:14:22.867Z,99.99
2017-01-26T06:16:30.074Z,99.99
2017-01-26T06:18:42.361Z,99.99
2017-01-26T06:20:49.698Z,99.99
2017-01-26T06:23:01.984Z,99.99
2017-01-26T06:25:14.350Z,99.99
2017-01-26T06:27:26.573Z,99.99
2017-01-26T06:29:39.807Z,99.99
2017-01-26T06:31:52.300Z,99.99
2017-01-26T06:34:04.561Z,99.99
2017-01-26T06:36:12.051Z,99.99
2017-01-26T06:38:19.419Z,99.99
2017-01-26T06:40:36.698Z,99.99
2017-01-26T06:42:51.611Z,99.99
2017-01-26T06:45:04.002Z,99.99
2017-01-26T06:47:16.717Z,99.99
2017-01-26T06:49:29.497Z,99.99
2017-01-26T06:51:36.979Z,99.99
2017-01-26T06:53:49.309Z,99.99
2017-01-26T06:56:01.500Z,99.99
2017-01-26T06:58:09.282Z,99.99
2017-01-26T07:00:21.503Z,99.99
2017-01-26T07:02:33.836Z,99.99
2017-01-26T07:04:46.140Z,99.99
2017-01-26T07:06:58.615Z,99.99
2017-01-26T07:09:10.986Z,99.99
2017-01-26T07:11:24.325Z,99.99
2017-01-26T07:13:36.699Z,99.99
2017-01-26T07:15:49.009Z,99.99
2017-01-26T07:18:01.412Z,99.99
2017-01-26T07:20:09.240Z,99.99
2017-01-26T07:22:12.233Z,99.99
2017-01-26T07:24:24.742Z,99.99
2017-01-26T07:26:37.099Z,99.99
2017-01-26T07:28:49.509Z,99.99
2017-01-26T07:31:01.775Z,99.99
2017-01-26T07:33:13.992Z,99.99
2017-01-26T07:35:26.843Z,99.99
2017-01-26T07:37:39.070Z,99.99
2017-01-26T07:39:51.464Z,99.99
2017-01-26T07:42:03.835Z,99.99
2017-01-26T07:44:16.344Z,99.99
2017-01-26T07:46:28.776Z,99.99
2017-01-26T07:48:41.036Z,99.99
2017-01-26T07:50:53.561Z,99.99
2017-01-26T07:53:00.893Z,99.99
2017-01-26T07:55:13.119Z,99.99
2017-01-26T07:57:26.476Z,99.99
2017-01-26T07:59:38.956Z,99.99
2017-01-26T08:01:46.382Z,99.99
2017-01-26T08:03:53.784Z,99.99
2017-01-26T08:06:06.188Z,99.99
2017-01-26T08:08:18.751Z,99.99
2017-01-26T08:10:30.927Z,99.99
2017-01-26T08:12:38.321Z,99.99
2017-01-26T08:14:50.719Z,99.99
2017-01-26T08:16:59.368Z,99.99
2017-01-26T08:19:11.788Z,99.99
2017-01-26T08:21:29.107Z,99.99
2017-01-26T08:23:48.051Z,99.99
2017-01-26T08:26:00.287Z,99.99
2017-01-26T08:28:12.618Z,99.99
2017-01-26T08:30:15.261Z,99.99
2017-01-26T08:32:28.145Z,99.99
2017-01-26T08:34:40.497Z,99.99
2017-01-26T08:36:52.995Z,99.99
2017-01-26T08:39:00.293Z,99.99
2017-01-26T08:41:02.648Z,99.99
2017-01-26T08:43:14.964Z,99.99
2017-01-26T08:45:27.098Z,99.99
2017-01-26T08:47:39.573Z,99.99
2017-01-26T08:49:51.764Z,99.99
2017-01-26T08:52:03.991Z,99.99
2017-01-26T08:54:16.444Z,99.99
2017-01-26T08:56:23.801Z,99.99
2017-01-26T08:58:31.296Z,99.99
2017-01-26T09:00:43.654Z,99.99
2017-01-26T09:02:56.129Z,99.99
2017-01-26T09:05:08.345Z,99.99
2017-01-26T09:07:20.991Z,99.99
2017-01-26T09:09:35.125Z,99.99
2017-01-26T09:11:47.510Z,99.99
2017-01-26T09:13:59.927Z,99.99
2017-01-26T09:16:12.219Z,99.99
2017-01-26T09:18:24.543Z,99.99
2017-01-26T09:20:36.928Z,99.99
2017-01-26T09:22:49.305Z,99.99
2017-01-26T09:25:01.746Z,99.99
2017-01-26T09:27:14.040Z,99.99
2017-01-26T09:29:21.640Z,99.99
2017-01-26T09:31:33.988Z,99.99
2017-01-26T09:33:46.441Z,99.99
2017-01-26T09:35:58.815Z,99.99
2017-01-26T09:38:11.154Z,99.99
2017-01-26T09:40:23.594Z,99.99
2017-01-26T09:42:35.953Z,99.99
2017-01-26T09:44:48.481Z,99.99
2017-01-26T09:46:55.951Z,99.99
2017-01-26T09:49:03.208Z,99.99
2017-01-26T09:51:15.566Z,99.99
2017-01-26T09:53:27.954Z,99.99
2017-01-26T09:55:40.296Z,99.99
2017-01-26T09:57:52.939Z,99.99
2017-01-26T10:00:05.359Z,99.99
2017-01-26T10:02:17.630Z,99.99
2017-01-26T10:04:25.937Z,99.99
2017-01-26T10:06:33.126Z,99.99
2017-01-26T10:08:45.448Z,99.99
2017-01-26T10:10:57.866Z,99.99
2017-01-26T10:13:05.173Z,99.99
2017-01-26T10:15:17.743Z,99.99
2017-01-26T10:17:30.359Z,99.99
2017-01-26T10:19:38.877Z,99.99
2017-01-26T10:21:51.240Z,99.99
2017-01-26T10:23:53.786Z,99.99
2017-01-26T10:26:01.187Z,99.99
2017-01-26T10:28:13.446Z,99.99
2017-01-26T10:30:26.738Z,99.99
2017-01-26T10:32:34.030Z,99.99
2017-01-26T10:34:46.327Z,99.99
2017-01-26T10:36:53.736Z,99.99
2017-01-26T10:39:01.079Z,99.99
2017-01-26T10:41:13.460Z,99.99
2017-01-26T10:43:25.787Z,99.99
2017-01-26T10:45:38.201Z,99.99
2017-01-26T10:47:50.428Z,99.99
2017-01-26T10:50:02.646Z,99.99
2017-01-26T10:52:15.538Z,99.99
2017-01-26T10:54:28.081Z,99.99
2017-01-26T10:56:40.369Z,99.99
2017-01-26T10:58:47.640Z,99.99
2017-01-26T11:00:59.816Z,99.99
2017-01-26T11:03:12.019Z,99.99
2017-01-26T11:05:19.463Z,99.99
2017-01-26T11:07:26.791Z,99.99
2017-01-26T11:09:39.141Z,99.99
2017-01-26T11:11:51.377Z,99.99
2017-01-26T11:14:03.607Z,99.99
2017-01-26T11:16:15.906Z,99.99
2017-01-26T11:18:28.179Z,99.99
2017-01-26T11:20:40.526Z,99.99
2017-01-26T11:22:52.804Z,99.99
2017-01-26T11:25:05.040Z,99.99
2017-01-26T11:27:17.786Z,99.99
2017-01-26T11:29:30.642Z,99.99
2017-01-26T11:31:43.020Z,99.99
2017-01-26T11:33:55.314Z,99.99
2017-01-26T11:35:57.604Z,99.99
2017-01-26T11:38:04.843Z,99.99
2017-01-26T11:40:07.265Z,99.99
2017-01-26T11:42:19.756Z,99.99
2017-01-26T11:44:26.976Z,99.99
2017-01-26T11:46:39.459Z,99.99
2017-01-26T11:48:51.645Z,99.99
2017-01-26T11:51:03.847Z,99.99
2017-01-26T11:53:16.338Z,99.99
2017-01-26T11:55:28.728Z,99.99
2017-01-26T11:57:41.144Z,99.99
2017-01-26T11:59:53.485Z,99.99
2017-01-26T12:02:06.728Z,99.99
2017-01-26T12:04:19.274Z,99.99
2017-01-26T12:06:31.601Z,99.99
2017-01-26T12:08:44.008Z,99.99
2017-01-26T12:10:51.383Z,99.99
2017-01-26T12:12:53.837Z,99.99
2017-01-26T12:15:01.397Z,99.99
2017-01-26T12:17:13.759Z,99.99
2017-01-26T12:19:21.272Z,99.99
2017-01-26T12:21:34.676Z,99.99
2017-01-26T12:23:42.286Z,99.99
2017-01-26T12:25:54.824Z,99.99
2017-01-26T12:28:07.590Z,99.99
2017-01-26T12:30:20.207Z,99.99
2017-01-26T12:32:27.735Z,99.99
2017-01-26T12:34:40.358Z,99.99
2017-01-26T12:36:53.185Z,99.99
2017-01-26T12:39:05.790Z,99.99
2017-01-26T12:41:13.231Z,99.99
2017-01-26T12:43:25.523Z,99.99
2017-01-26T12:45:32.932Z,99.99
2017-01-26T12:47:45.190Z,99.99
2017-01-26T12:49:57.606Z,99.99
2017-01-26T12:52:04.966Z,99.99
2017-01-26T12:54:17.692Z,99.99
2017-01-26T12:56:30.181Z,99.99
2017-01-26T12:58:42.705Z,99.99
2017-01-26T13:00:50.003Z,99.99
2017-01-26T13:03:02.362Z,99.99
2017-01-26T13:05:09.707Z,99.99
2017-01-26T13:07:17.331Z,99.99
2017-01-26T13:09:29.848Z,99.99
2017-01-26T13:11:42.562Z,99.99
2017-01-26T13:13:55.194Z,99.99
2017-01-26T13:16:07.679Z,99.99
2017-01-26T13:18:19.988Z,99.99
2017-01-26T13:20:32.932Z,99.99
2017-01-26T13:22:45.879Z,99.99
2017-01-26T13:24:53.140Z,99.99
2017-01-26T13:27:05.524Z,99.99
2017-01-26T13:29:17.941Z,99.99
2017-01-26T13:31:30.623Z,99.99
2017-01-26T13:33:43.348Z,99.99
2017-01-26T13:35:52.645Z,99.99
2017-01-26T13:38:06.558Z,99.99
2017-01-26T13:40:19.702Z,99.99
2017-01-26T13:42:32.115Z,99.99
2017-01-26T13:44:44.432Z,99.99
2017-01-26T13:46:57.148Z,99.99
2017-01-26T13:49:09.659Z,99.99
2017-01-26T13:51:21.898Z,99.99
2017-01-26T13:53:34.263Z,99.99
2017-01-26T13:55:46.548Z,99.99
2017-01-26T13:57:58.805Z,99.99
2017-01-26T14:00:11.499Z,99.99
2017-01-26T14:02:24.019Z,99.99
2017-01-26T14:04:36.306Z,99.99
2017-01-26T14:06:48.572Z,99.99
2017-01-26T14:09:00.858Z,99.99
2017-01-26T14:10:53.267Z,99.99
2017-01-26T14:13:05.460Z,99.99
2017-01-26T14:15:17.821Z,99.99
2017-01-26T14:17:29.981Z,99.99
2017-01-26T14:19:37.385Z,99.99
2017-01-26T14:21:50.199Z,99.99
2017-01-26T14:24:02.752Z,99.99
2017-01-26T14:26:14.998Z,99.99
2017-01-26T14:28:27.385Z,99.99
2017-01-26T14:30:39.882Z,99.99
2017-01-26T14:32:52.263Z,99.99
2017-01-26T14:34:59.522Z,99.99
2017-01-26T14:37:07.014Z,99.99
2017-01-26T14:39:19.300Z,99.99
2017-01-26T14:41:26.729Z,99.99
2017-01-26T14:43:39.243Z,99.99
2017-01-26T14:45:51.603Z,99.99
2017-01-26T14:47:58.970Z,99.99
2017-01-26T14:50:11.283Z,99.99
2017-01-26T14:52:23.727Z,99.99
2017-01-26T14:54:26.098Z,99.99
2017-01-26T14:56:38.610Z,99.99
2017-01-26T14:58:51.319Z,99.99
2017-01-26T15:00:58.705Z,99.99
2017-01-26T15:03:11.117Z,99.99
2017-01-26T15:05:23.649Z,99.99
2017-01-26T15:07:35.920Z,99.99
2017-01-26T15:09:48.385Z,99.99
2017-01-26T15:11:55.743Z,99.99
2017-01-26T15:14:03.050Z,99.99
2017-01-26T15:16:10.362Z,99.99
2017-01-26T15:18:22.897Z,99.99
2017-01-26T15:20:35.230Z,99.99
2017-01-26T15:22:48.598Z,99.99
2017-01-26T15:25:04.318Z,99.99
2017-01-26T15:27:16.885Z,99.99
2017-01-26T15:29:33.657Z,99.99
2017-01-26T15:31:46.662Z,99.99
2017-01-26T15:33:59.773Z,99.99
2017-01-26T15:36:13.434Z,99.99
2017-01-26T15:38:29.112Z,99.99
2017-01-26T15:40:50.350Z,99.99
2017-01-26T15:43:02.405Z,99.99
2017-01-26T15:45:14.741Z,99.99
2017-01-26T15:47:23.146Z,99.99
2017-01-26T15:49:30.710Z,99.99
2017-01-26T15:51:44.392Z,99.99
2017-01-26T15:53:56.900Z,99.99
2017-01-26T15:56:09.823Z,99.99
2017-01-26T15:58:22.321Z,99.99
2017-01-26T16:00:34.600Z,99.99
2017-01-26T16:02:47.559Z,99.99
2017-01-26T16:05:01.799Z,99.99
2017-01-26T16:07:22.292Z,99.99
2017-01-26T16:10:05.302Z,99.99
2017-01-26T16:12:39.471Z,99.99
2017-01-26T16:15:19.245Z,99.99
2017-01-26T16:18:01.135Z,99.99
2017-01-26T16:20:40.214Z,99.99
2017-01-26T16:23:12.311Z,99.99
2017-01-26T16:25:54.994Z,99.99
2017-01-26T16:28:37.745Z,99.99
2017-01-26T16:31:18.133Z,99.99
2017-01-26T16:34:00.856Z,99.99
2017-01-26T16:36:45.657Z,99.99
2017-01-26T16:39:33.388Z,99.99
2017-01-26T16:42:24.115Z,99.99
2017-01-26T16:45:10.119Z,99.99
2017-01-26T16:47:53.469Z,99.99
2017-01-26T16:50:18.540Z,99.99
2017-01-26T16:53:02.679Z,99.99
2017-01-26T16:55:53.515Z,99.99
2017-01-26T16:58:38.778Z,99.99
2017-01-26T17:01:30.521Z,99.99
2017-01-26T17:04:07.219Z,99.99
2017-01-26T17:06:19.607Z,99.99
2017-01-26T17:08:32.025Z,99.99
2017-01-26T17:10:44.308Z,99.99
2017-01-26T17:12:56.584Z,99.99
2017-01-26T17:15:08.931Z,99.99
2017-01-26T17:17:16.232Z,99.99
2017-01-26T17:19:28.572Z,99.99
2017-01-26T17:21:40.952Z,99.99
2017-01-26T17:23:53.383Z,99.99
2017-01-26T17:26:05.789Z,99.99
2017-01-26T17:28:13.172Z,99.99
2017-01-26T17:30:20.647Z,99.99
2017-01-26T17:32:32.980Z,99.99
2017-01-26T17:34:45.440Z,99.99
2017-01-26T17:36:57.777Z,99.99
2017-01-26T17:39:10.656Z,99.99
2017-01-26T17:41:18.042Z,99.99
2017-01-26T17:43:25.448Z,99.99
2017-01-26T17:45:37.856Z,99.99
2017-01-26T17:47:45.156Z,99.99
2017-01-26T17:49:57.456Z,99.99
2017-01-26T17:52:09.897Z,99.99
2017-01-26T17:54:22.239Z,99.99
2017-01-26T17:56:29.634Z,99.99
2017-01-26T17:58:38.724Z,99.99
2017-01-26T18:00:51.204Z,99.99
2017-01-26T18:02:58.614Z,99.99
2017-01-26T18:05:10.888Z,99.99
2017-01-26T18:07:23.405Z,99.99
2017-01-26T18:09:35.893Z,99.99
2017-01-26T18:11:48.295Z,99.99
2017-01-26T18:14:00.699Z,99.99
2017-01-26T18:16:12.987Z,99.99
2017-01-26T18:18:25.291Z,99.99
2017-01-26T18:20:38.218Z,99.99
2017-01-26T18:22:51.823Z,99.99
2017-01-26T18:25:04.809Z,99.99
2017-01-26T18:27:17.224Z,99.99
2017-01-26T18:29:29.845Z,99.99
2017-01-26T18:31:43.603Z,99.99
2017-01-26T18:33:56.617Z,99.99
2017-01-26T18:36:04.751Z,99.99
2017-01-26T18:38:17.333Z,99.99
2017-01-26T18:40:31.401Z,99.99
2017-01-26T18:42:39.017Z,99.99
2017-01-26T18:44:46.927Z,99.99
2017-01-26T18:46:51.400Z,99.99
2017-01-26T18:49:05.817Z,99.99
2017-01-26T18:51:13.219Z,99.99
2017-01-26T18:53:25.654Z,99.99
2017-01-26T18:55:38.269Z,99.99
2017-01-26T18:57:52.277Z,99.99
2017-01-26T19:00:05.768Z,99.99
2017-01-26T19:02:18.118Z,99.99
2017-01-26T19:04:30.702Z,99.99
2017-01-26T19:06:44.228Z,99.99
2017-01-26T19:08:56.882Z,99.99
2017-01-26T19:11:04.124Z,99.99
2017-01-26T19:13:16.408Z,99.99
2017-01-26T19:15:28.932Z,99.99
2017-01-26T19:17:41.487Z,99.99
2017-01-26T19:19:53.942Z,99.99
2017-01-26T19:22:06.265Z,99.99
2017-01-26T19:24:18.871Z,99.99
2017-01-26T19:26:32.100Z,99.99
2017-01-26T19:28:45.146Z,99.99
2017-01-26T19:30:57.449Z,99.99
2017-01-26T19:33:12.016Z,99.99
2017-01-26T19:35:24.977Z,99.99
2017-01-26T19:37:39.479Z,99.99
2017-01-26T19:39:47.450Z,99.96
2017-01-26T19:42:00.203Z,99.96
2017-01-26T19:44:13.188Z,99.85
2017-01-26T19:46:25.573Z,99.99
2017-01-26T19:48:37.844Z,99.85
2017-01-26T19:50:50.088Z,99.79
2017-01-26T19:53:02.289Z,99.58
2017-01-26T19:55:09.629Z,99.48
2017-01-26T19:57:23.564Z,99.37
2017-01-26T19:59:37.880Z,99.26
2017-01-26T20:01:50.308Z,99.2
2017-01-26T20:04:02.916Z,99.2
2017-01-26T20:06:15.505Z,99.09
2017-01-26T20:08:24.948Z,99.09
2017-01-26T20:10:37.749Z,98.99
2017-01-26T20:12:50.669Z,98.99
2017-01-26T20:15:04.468Z,98.93
2017-01-26T20:17:17.758Z,98.93
2017-01-26T20:19:25.705Z,98.82
2017-01-26T20:21:39.326Z,98.82
2017-01-26T20:23:53.208Z,98.71
2017-01-26T20:26:00.726Z,98.71
2017-01-26T20:28:08.272Z,98.65
2017-01-26T20:30:23.875Z,98.65
2017-01-26T20:32:36.481Z,98.54
2017-01-26T20:34:50.448Z,99.99
2017-01-26T20:37:04.733Z,98.65
2017-01-26T20:39:19.221Z,98.11
2017-01-26T20:41:33.359Z,98.05
2017-01-26T20:43:46.540Z,98.05
2017-01-26T20:45:54.001Z,97.94
2017-01-26T20:48:06.340Z,97.84
2017-01-26T20:50:08.775Z,97.73
2017-01-26T20:52:21.524Z,97.77
2017-01-26T20:54:34.443Z,97.67
2017-01-26T20:56:41.816Z,97.67
2017-01-26T20:58:54.240Z,97.67
2017-01-26T21:01:06.520Z,97.56
2017-01-26T21:03:18.909Z,97.56
2017-01-26T21:05:31.333Z,97.5
2017-01-26T21:07:43.694Z,97.5
2017-01-26T21:09:55.914Z,97.39
2017-01-26T21:12:08.071Z,97.39
2017-01-26T21:14:20.543Z,97.92
2017-01-26T21:16:32.942Z,97.28
2017-01-26T21:18:40.439Z,97.07
2017-01-26T21:20:52.944Z,97
2017-01-26T21:23:05.473Z,96.9
2017-01-26T21:25:18.041Z,96.9
2017-01-26T21:27:30.983Z,96.79
2017-01-26T21:29:43.339Z,96.79
2017-01-26T21:31:55.693Z,96.69
2017-01-26T21:34:07.939Z,96.73
2017-01-26T21:36:20.205Z,96.62
2017-01-26T21:38:27.453Z,96.62
2017-01-26T21:40:39.910Z,96.51
2017-01-26T21:42:52.262Z,96.73
2017-01-26T21:45:05.200Z,96.56
2017-01-26T21:47:17.587Z,96.34
2017-01-26T21:49:29.873Z,96.23
2017-01-26T21:51:42.282Z,96.13
2017-01-26T21:53:54.817Z,96.13
2017-01-26T21:56:07.085Z,96.13
2017-01-26T21:58:19.395Z,96.13
2017-01-26T22:00:26.782Z,96.02
2017-01-26T22:02:39.256Z,96.06
2017-01-26T22:04:51.517Z,96.06
2017-01-26T22:07:03.755Z,95.96
2017-01-26T22:09:15.965Z,95.96
2017-01-26T22:11:23.269Z,95.85
2017-01-26T22:13:35.572Z,95.85
2017-01-26T22:15:47.889Z,95.85
2017-01-26T22:18:00.109Z,95.74
2017-01-26T22:20:12.431Z,95.78
2017-01-26T22:22:24.784Z,95.68
2017-01-26T22:24:37.170Z,95.68
2017-01-26T22:26:49.430Z,95.57
2017-01-26T22:29:01.669Z,95.47
2017-01-26T22:31:16.506Z,95.51
2017-01-26T22:33:28.759Z,95.51
2017-01-26T22:35:36.906Z,95.4
2017-01-26T22:37:49.565Z,95.4
2017-01-26T22:40:01.943Z,95.4
2017-01-26T22:42:14.272Z,95.29
2017-01-26T22:44:32.293Z,95.29
2017-01-26T22:46:52.607Z,95.18
2017-01-26T22:49:24.234Z,95.23
2017-01-26T22:51:50.056Z,95.23
2017-01-26T22:54:02.566Z,95.23
2017-01-26T22:56:09.255Z,95.12
2017-01-26T22:58:21.858Z,95.12
2017-01-26T23:00:40.078Z,95.12
2017-01-26T23:03:13.701Z,95.12
2017-01-26T23:05:47.229Z,95.01
2017-01-26T23:08:20.270Z,95.01
2017-01-26T23:10:53.563Z,95.01
2017-01-26T23:13:25.909Z,94.9
2017-01-26T23:15:59.007Z,94.95
2017-01-26T23:18:32.301Z,94.84
2017-01-26T23:21:05.759Z,94.84
2017-01-26T23:23:36.954Z,94.73
2017-01-26T23:26:11.218Z,94.73
2017-01-26T23:28:45.731Z,94.73
2017-01-26T23:31:19.863Z,94.73
2017-01-26T23:33:53.762Z,94.67
2017-01-26T23:36:20.489Z,94.67
2017-01-26T23:38:34.670Z,94.67
2017-01-26T23:40:51.371Z,94.67
2017-01-26T23:43:05.048Z,94.56
2017-01-26T23:45:21.855Z,94.56
2017-01-26T23:47:29.120Z,94.56
2017-01-26T23:49:46.838Z,94.56
2017-01-26T23:52:03.321Z,94.45
2017-01-26T23:54:18.688Z,94.45
2017-01-26T23:56:35.231Z,94.49
2017-01-26T23:58:50.431Z,94.38
